createdAt,value
2022-08-18T00:01:16.647Z,74.74
2022-08-18T00:03:56.254Z,72.84
2022-08-18T00:06:30.061Z,72.94
2022-08-18T00:08:59.977Z,75.13
2022-08-18T00:11:41.622Z,71.05
2022-08-18T00:14:13.828Z,65.44
2022-08-18T00:16:53.770Z,63.71
2022-08-18T00:19:43.459Z,62.71
2022-08-18T00:22:15.830Z,61.62
2022-08-18T00:24:48.121Z,62.58
2022-08-18T00:27:21.982Z,64.83
2022-08-18T00:29:53.210Z,62.87
2022-08-18T00:32:25.580Z,66.15
2022-08-18T00:34:54.371Z,72.46
2022-08-18T00:37:25.199Z,72.61
2022-08-18T00:39:54.369Z,74.38
2022-08-18T00:42:28.863Z,76.44
2022-08-18T00:45:02.744Z,74.95
2022-08-18T00:47:41.601Z,63.32
2022-08-18T00:50:15.676Z,60.65
2022-08-18T00:52:51.205Z,58.99
2022-08-18T00:55:20.381Z,57.69
2022-08-18T00:57:57.393Z,57.09
2022-08-18T01:00:25.834Z,56.69
2022-08-18T01:02:58.332Z,56.21
2022-08-18T01:05:34.070Z,56.35
2022-08-18T01:08:04.689Z,55.92
2022-08-18T01:10:35.458Z,55.78
2022-08-18T01:13:03.699Z,55.37
2022-08-18T01:15:33.969Z,55.68
2022-08-18T01:18:21.714Z,55.56
2022-08-18T01:21:16.235Z,57.72
2022-08-18T01:23:47.166Z,62.21
2022-08-18T01:26:15.517Z,66.34
2022-08-18T01:28:46.653Z,69.32
2022-08-18T01:31:32.983Z,71.39
2022-08-18T01:34:01.313Z,71.83
2022-08-18T01:36:30.151Z,72.07
2022-08-18T01:38:59.776Z,73.43
2022-08-18T01:41:30.831Z,69.01
2022-08-18T01:44:00.546Z,68.76
2022-08-18T01:46:30.318Z,66.74
2022-08-18T01:49:01.489Z,66.17
2022-08-18T01:51:39.383Z,61.64
2022-08-18T01:54:13.493Z,65.73
2022-08-18T01:56:43.393Z,63.78
2022-08-18T01:59:14.791Z,69.00
2022-08-18T02:01:48.450Z,70.36
2022-08-18T02:04:36.553Z,70.93
2022-08-18T02:07:09.288Z,69.70
2022-08-18T02:09:41.276Z,67.71
2022-08-18T02:12:10.266Z,62.41
2022-08-18T02:14:39.100Z,60.85
2022-08-18T02:17:09.472Z,61.12
2022-08-18T02:19:40.932Z,61.90
2022-08-18T02:22:11.921Z,64.73
2022-08-18T02:24:44.065Z,62.42
2022-08-18T02:27:13.503Z,60.31
2022-08-18T02:29:42.061Z,58.99
2022-08-18T02:32:10.504Z,58.47
2022-08-18T02:34:38.812Z,58.53
2022-08-18T02:37:06.985Z,58.16
2022-08-18T02:39:38.036Z,58.27
2022-08-18T02:42:09.213Z,58.23
2022-08-18T02:44:37.483Z,57.91
2022-08-18T02:47:06.544Z,57.38
2022-08-18T02:49:36.902Z,57.33
2022-08-18T02:52:06.737Z,56.97
2022-08-18T02:54:35.276Z,56.80
2022-08-18T02:57:10.850Z,56.80
2022-08-18T02:59:40.636Z,57.15
2022-08-18T03:02:10.679Z,56.79
2022-08-18T03:04:38.882Z,57.83
2022-08-18T03:07:09.501Z,64.69
2022-08-18T03:09:38.181Z,65.56
2022-08-18T03:12:08.577Z,67.53
2022-08-18T03:14:39.997Z,62.88
2022-08-18T03:17:10.292Z,60.67
2022-08-18T03:19:38.874Z,58.98
2022-08-18T03:22:27.606Z,58.70
2022-08-18T03:24:57.868Z,59.11
2022-08-18T03:27:26.683Z,63.24
2022-08-18T03:29:56.686Z,62.06
2022-08-18T03:32:27.231Z,63.67
2022-08-18T03:34:55.485Z,65.64
2022-08-18T03:37:23.601Z,66.56
2022-08-18T03:39:52.929Z,65.68
2022-08-18T03:42:21.218Z,66.19
2022-08-18T03:44:49.332Z,66.47
2022-08-18T03:47:19.554Z,66.86
2022-08-18T03:49:48.508Z,68.08
2022-08-18T03:52:16.943Z,68.45
2022-08-18T03:54:45.214Z,69.03
2022-08-18T03:57:14.435Z,68.72
2022-08-18T03:59:43.847Z,68.55
2022-08-18T04:02:13.164Z,69.59
2022-08-18T04:04:43.162Z,69.19
2022-08-18T04:07:17.381Z,69.26
2022-08-18T04:09:46.359Z,68.45
2022-08-18T04:12:17.466Z,68.47
2022-08-18T04:14:50.384Z,68.50
2022-08-18T04:17:25.114Z,67.80
2022-08-18T04:19:56.561Z,68.06
2022-08-18T04:22:26.458Z,68.47
2022-08-18T04:24:55.658Z,67.85
2022-08-18T04:27:26.390Z,65.96
2022-08-18T04:29:56.831Z,64.87
2022-08-18T04:32:29.921Z,62.40
2022-08-18T04:35:02.531Z,62.08
2022-08-18T04:37:33.156Z,61.94
2022-08-18T04:40:07.878Z,63.28
2022-08-18T04:42:36.053Z,61.65
2022-08-18T04:45:13.076Z,59.32
2022-08-18T04:47:41.926Z,59.13
2022-08-18T04:50:12.397Z,59.70
2022-08-18T04:52:57.994Z,59.84
2022-08-18T04:55:26.382Z,59.32
2022-08-18T04:57:54.505Z,58.80
2022-08-18T05:00:23.018Z,59.47
2022-08-18T05:02:54.606Z,59.79
2022-08-18T05:05:24.612Z,59.17
2022-08-18T05:07:52.876Z,59.66
2022-08-18T05:10:21.155Z,59.32
2022-08-18T05:12:49.917Z,58.12
2022-08-18T05:15:19.055Z,52.54
2022-08-18T05:17:50.385Z,49.07
2022-08-18T05:20:19.427Z,45.88
2022-08-18T05:22:50.158Z,43.14
2022-08-18T05:25:18.671Z,43.82
2022-08-18T05:27:46.775Z,43.51
2022-08-18T05:30:15.696Z,42.58
2022-08-18T05:32:49.718Z,40.38
2022-08-18T05:35:23.457Z,42.22
2022-08-18T05:38:28.081Z,41.71
2022-08-18T05:41:14.067Z,41.66
2022-08-18T05:43:52.076Z,42.48
2022-08-18T05:46:23.468Z,45.35
2022-08-18T05:48:53.569Z,44.77
2022-08-18T05:51:27.722Z,42.01
2022-08-18T05:54:15.464Z,39.83
2022-08-18T05:56:47.612Z,41.17
2022-08-18T05:59:22.244Z,36.61
2022-08-18T06:01:56.985Z,37.70
2022-08-18T06:04:31.537Z,36.66
2022-08-18T06:07:05.677Z,40.73
2022-08-18T06:09:40.533Z,38.53
2022-08-18T06:12:21.082Z,36.43
2022-08-18T06:14:49.283Z,36.56
2022-08-18T06:17:38.225Z,35.24
2022-08-18T06:20:16.642Z,32.31
2022-08-18T06:22:56.628Z,32.67
2022-08-18T06:25:35.264Z,31.97
2022-08-18T06:28:08.699Z,32.81
2022-08-18T06:30:52.178Z,32.92
2022-08-18T06:33:39.610Z,31.96
2022-08-18T06:36:19.736Z,31.51
2022-08-18T06:39:44.486Z,31.62
2022-08-18T06:42:14.009Z,31.59
2022-08-18T06:44:46.750Z,31.86
2022-08-18T06:47:22.489Z,32.60
2022-08-18T06:49:59.138Z,32.93
2022-08-18T06:52:30.936Z,31.32
2022-08-18T06:55:01.535Z,31.81
2022-08-18T06:57:34.746Z,32.30
2022-08-18T07:00:11.306Z,31.84
2022-08-18T07:02:50.817Z,32.28
2022-08-18T07:05:25.451Z,32.58
2022-08-18T07:08:18.940Z,32.23
2022-08-18T07:10:48.559Z,32.78
2022-08-18T07:13:25.661Z,32.08
2022-08-18T07:15:55.778Z,32.44
2022-08-18T07:18:27.487Z,32.54
2022-08-18T07:20:58.964Z,32.60
2022-08-18T07:23:32.310Z,33.41
2022-08-18T07:26:05.765Z,33.62
2022-08-18T07:28:40.311Z,32.88
2022-08-18T07:31:30.718Z,33.59
2022-08-18T07:34:02.718Z,33.70
2022-08-18T07:36:35.613Z,34.21
2022-08-18T07:39:09.047Z,34.30
2022-08-18T07:41:44.054Z,36.34
2022-08-18T07:44:18.953Z,37.87
2022-08-18T07:46:57.381Z,38.71
2022-08-18T07:49:28.040Z,40.43
2022-08-18T07:52:14.617Z,41.65
2022-08-18T07:55:04.865Z,42.29
2022-08-18T07:57:43.716Z,43.90
2022-08-18T08:00:54.898Z,45.20
2022-08-18T08:03:27.021Z,45.73
2022-08-18T08:06:08.607Z,46.82
2022-08-18T08:08:43.586Z,48.63
2022-08-18T08:11:27.506Z,47.47
2022-08-18T08:14:07.268Z,46.86
2022-08-18T08:16:45.715Z,46.32
2022-08-18T08:19:59.068Z,46.46
2022-08-18T08:22:29.540Z,47.76
2022-08-18T08:25:17.499Z,47.64
2022-08-18T08:28:07.455Z,46.88
2022-08-18T08:30:42.273Z,47.57
2022-08-18T08:33:21.350Z,45.89
2022-08-18T08:35:55.069Z,46.92
2022-08-18T08:38:42.409Z,46.55
2022-08-18T08:41:20.009Z,48.32
2022-08-18T08:43:55.275Z,46.69
2022-08-18T08:46:30.073Z,46.60
2022-08-18T08:49:07.107Z,46.70
2022-08-18T08:51:40.913Z,47.27
2022-08-18T08:54:16.284Z,46.90
2022-08-18T08:56:48.444Z,46.61
2022-08-18T08:59:19.736Z,46.38
2022-08-18T09:02:00.269Z,45.42
2022-08-18T09:04:54.805Z,46.54
2022-08-18T09:07:48.032Z,46.02
2022-08-18T09:10:42.447Z,46.92
2022-08-18T09:13:33.627Z,45.70
2022-08-18T09:16:23.356Z,45.20
2022-08-18T09:19:12.939Z,45.01
2022-08-18T09:21:49.806Z,44.62
2022-08-18T09:24:25.860Z,45.34
2022-08-18T09:27:14.817Z,44.69
2022-08-18T09:29:53.444Z,45.31
2022-08-18T09:32:54.609Z,47.98
2022-08-18T09:35:55.764Z,52.26
2022-08-18T09:38:48.617Z,53.07
2022-08-18T09:41:35.848Z,52.01
2022-08-18T09:44:21.763Z,55.13
2022-08-18T09:46:58.814Z,52.56
2022-08-18T09:49:47.911Z,51.61
2022-08-18T09:52:56.114Z,53.25
2022-08-18T09:59:10.895Z,50.65
2022-08-18T10:01:42.983Z,52.26
2022-08-18T10:04:34.102Z,53.03
2022-08-18T10:11:01.504Z,56.68
2022-08-18T10:13:25.443Z,55.62
2022-08-18T10:16:11.490Z,53.22
2022-08-18T10:19:23.203Z,49.93
2022-08-18T10:22:06.558Z,51.12
2022-08-18T10:24:38.490Z,51.03
2022-08-18T10:27:10.021Z,51.68
2022-08-18T10:29:57.036Z,50.08
2022-08-18T10:32:54.044Z,49.29
2022-08-18T10:36:07.328Z,54.63
2022-08-18T10:38:45.959Z,53.06
2022-08-18T10:41:31.550Z,51.12
2022-08-18T10:44:15.344Z,51.87
2022-08-18T10:46:54.194Z,50.39
2022-08-18T10:49:32.119Z,51.07
2022-08-18T10:52:45.506Z,50.00
2022-08-18T10:55:50.126Z,56.04
2022-08-18T10:58:49.693Z,57.51
2022-08-18T11:01:32.762Z,59.49
2022-08-18T11:04:33.423Z,55.48
2022-08-18T11:07:12.479Z,55.88
2022-08-18T11:09:50.673Z,57.53
2022-08-18T11:13:07.681Z,54.48
2022-08-18T11:15:50.607Z,54.82
2022-08-18T11:21:33.370Z,56.16
2022-08-18T11:24:12.017Z,57.46
2022-08-18T11:26:43.875Z,61.02
2022-08-18T11:29:33.344Z,61.12
2022-08-18T11:32:09.299Z,60.50
2022-08-18T11:34:52.168Z,58.08
2022-08-18T11:37:28.212Z,58.06
2022-08-18T11:43:30.010Z,59.49
2022-08-18T11:46:16.471Z,59.94
2022-08-18T11:48:51.715Z,57.61
2022-08-18T11:51:25.473Z,58.63
2022-08-18T11:54:02.347Z,59.30
2022-08-18T11:56:37.714Z,59.43
2022-08-18T11:59:07.802Z,58.86
2022-08-18T12:01:48.776Z,59.42
2022-08-18T12:04:25.666Z,59.16
2022-08-18T12:07:00.770Z,57.28
2022-08-18T12:10:16.561Z,58.30
2022-08-18T12:12:31.124Z,59.78
2022-08-18T12:15:24.952Z,61.73
2022-08-18T12:17:54.092Z,62.00
2022-08-18T12:20:23.422Z,60.39
2022-08-18T12:22:54.490Z,61.07
2022-08-18T12:25:25.703Z,63.46
2022-08-18T12:27:54.584Z,61.03
2022-08-18T12:30:23.410Z,60.83
2022-08-18T12:32:55.732Z,63.11
2022-08-18T12:35:25.134Z,63.03
2022-08-18T12:37:59.639Z,62.04
2022-08-18T12:40:33.164Z,60.87
2022-08-18T12:45:49.787Z,62.24
2022-08-18T12:48:18.298Z,61.47
2022-08-18T12:50:55.518Z,63.94
2022-08-18T12:53:30.358Z,63.41
2022-08-18T12:56:13.959Z,62.94
2022-08-18T12:58:42.199Z,62.03
2022-08-18T13:01:11.164Z,63.10
2022-08-18T13:03:42.631Z,64.09
2022-08-18T13:06:11.649Z,65.54
2022-08-18T13:08:48.105Z,66.61
2022-08-18T13:11:23.412Z,65.67
2022-08-18T13:13:56.972Z,67.61
2022-08-18T13:16:30.830Z,65.81
2022-08-18T13:19:10.666Z,65.92
2022-08-18T13:21:41.382Z,65.00
2022-08-18T13:24:12.997Z,62.97
2022-08-18T13:26:46.116Z,59.00
2022-08-18T13:29:17.438Z,58.49
2022-08-18T13:31:56.065Z,65.88
2022-08-18T13:34:30.121Z,66.41
2022-08-18T13:36:58.798Z,66.53
2022-08-18T13:39:33.617Z,67.57
2022-08-18T13:42:26.456Z,68.41
2022-08-18T13:44:55.184Z,68.02
2022-08-18T13:47:28.016Z,68.84
2022-08-18T13:49:58.962Z,67.00
2022-08-18T13:52:34.376Z,65.74
2022-08-18T13:55:08.516Z,66.41
2022-08-18T13:57:50.549Z,65.74
2022-08-18T14:00:30.635Z,65.42
2022-08-18T14:03:03.364Z,64.56
2022-08-18T14:05:36.481Z,65.21
2022-08-18T14:08:19.823Z,66.62
2022-08-18T14:10:51.196Z,67.21
2022-08-18T14:13:24.870Z,68.70
2022-08-18T14:15:54.691Z,69.45
2022-08-18T14:18:28.863Z,69.23
2022-08-18T14:21:22.925Z,69.50
2022-08-18T14:24:10.203Z,70.29
2022-08-18T14:26:51.409Z,71.48
2022-08-18T14:29:47.367Z,71.80
2022-08-18T14:32:17.843Z,72.29
2022-08-18T14:34:50.804Z,70.89
2022-08-18T14:37:19.663Z,71.51
2022-08-18T14:39:50.349Z,70.82
2022-08-18T14:42:21.192Z,72.59
2022-08-18T14:45:26.545Z,72.81
2022-08-18T14:47:59.594Z,73.62
2022-08-18T14:50:28.082Z,73.39
2022-08-18T14:52:56.476Z,74.03
2022-08-18T14:55:27.799Z,74.06
2022-08-18T14:57:59.477Z,73.05
2022-08-18T15:00:30.367Z,73.62
2022-08-18T15:03:00.061Z,73.05
2022-08-18T15:05:33.939Z,71.98
2022-08-18T15:08:04.840Z,73.84
2022-08-18T15:10:34.207Z,74.00
2022-08-18T15:13:03.911Z,74.94
2022-08-18T15:15:51.029Z,76.39
2022-08-18T15:18:22.357Z,76.01
2022-08-18T15:21:19.563Z,75.85
2022-08-18T15:24:19.523Z,76.34
2022-08-18T15:26:51.787Z,75.92
2022-08-18T15:29:29.009Z,76.43
2022-08-18T15:32:06.191Z,76.74
2022-08-18T15:34:46.100Z,75.35
2022-08-18T15:37:19.563Z,75.50
2022-08-18T15:39:51.811Z,75.60
2022-08-18T15:42:24.671Z,76.39
2022-08-18T15:44:53.810Z,76.64
2022-08-18T15:47:25.273Z,76.58
2022-08-18T15:49:54.862Z,77.01
2022-08-18T15:52:25.800Z,77.02
2022-08-18T15:54:56.991Z,77.43
2022-08-18T15:57:39.017Z,77.26
2022-08-18T16:00:12.044Z,76.82
2022-08-18T16:02:48.395Z,78.82
2022-08-18T16:05:17.936Z,80.26
2022-08-18T16:07:47.795Z,81.08
2022-08-18T16:10:18.080Z,80.22
2022-08-18T16:12:46.675Z,81.17
2022-08-18T16:15:21.190Z,80.77
2022-08-18T16:17:52.759Z,80.75
2022-08-18T16:20:23.979Z,81.22
2022-08-18T16:22:52.953Z,80.87
2022-08-18T16:25:22.714Z,80.77
2022-08-18T16:27:51.382Z,80.89
2022-08-18T16:30:23.382Z,81.33
2022-08-18T16:32:53.555Z,82.69
2022-08-18T16:35:22.900Z,83.57
2022-08-18T16:37:51.872Z,84.02
2022-08-18T16:40:20.862Z,83.80
2022-08-18T16:42:49.389Z,85.72
2022-08-18T16:45:22.979Z,84.73
2022-08-18T16:47:52.557Z,84.78
2022-08-18T16:50:20.915Z,84.23
2022-08-18T16:52:49.145Z,84.73
2022-08-18T16:55:17.313Z,84.41
2022-08-18T16:58:03.307Z,84.13
2022-08-18T17:00:54.679Z,83.66
2022-08-18T17:03:58.445Z,83.65
2022-08-18T17:06:28.410Z,83.56
2022-08-18T17:08:57.468Z,83.25
2022-08-18T17:11:28.104Z,82.53
2022-08-18T17:13:58.441Z,84.08
2022-08-18T17:16:29.140Z,84.92
2022-08-18T17:19:00.399Z,84.11
2022-08-18T17:24:09.195Z,83.84
2022-08-18T17:26:49.588Z,83.55
2022-08-18T17:29:21.631Z,83.09
2022-08-18T17:31:55.069Z,83.34
2022-08-18T17:34:32.240Z,83.06
2022-08-18T17:37:02.691Z,82.62
2022-08-18T17:39:37.818Z,83.37
2022-08-18T17:42:23.915Z,83.83
2022-08-18T17:44:54.168Z,83.10
2022-08-18T17:47:29.150Z,83.10
2022-08-18T17:50:26.979Z,82.92
2022-08-18T17:53:05.513Z,82.92
2022-08-18T17:55:40.336Z,83.38
2022-08-18T17:58:18.673Z,82.73
2022-08-18T18:00:46.875Z,82.44
2022-08-18T18:03:15.142Z,82.22
2022-08-18T18:05:48.922Z,82.21
2022-08-18T18:08:17.654Z,83.12
2022-08-18T18:11:04.284Z,82.94
2022-08-18T18:13:34.337Z,82.93
2022-08-18T18:16:22.244Z,82.49
2022-08-18T18:18:59.866Z,82.72
2022-08-18T18:21:56.564Z,84.21
2022-08-18T18:24:32.405Z,84.15
2022-08-18T18:27:01.157Z,84.07
2022-08-18T18:29:35.670Z,84.44
2022-08-18T18:32:08.670Z,84.56
2022-08-18T18:34:40.402Z,82.88
2022-08-18T18:37:28.817Z,82.49
2022-08-18T18:39:58.984Z,82.99
2022-08-18T18:42:29.524Z,82.84
2022-08-18T18:44:59.936Z,80.99
2022-08-18T18:47:49.918Z,81.10
2022-08-18T18:50:26.022Z,80.70
2022-08-18T18:53:12.207Z,80.76
2022-08-18T18:55:48.887Z,82.36
2022-08-18T18:58:27.326Z,82.26
2022-08-18T19:01:01.844Z,79.48
2022-08-18T19:03:37.619Z,76.94
2022-08-18T19:06:29.515Z,76.70
2022-08-18T19:09:08.887Z,75.57
2022-08-18T19:11:57.712Z,76.22
2022-08-18T19:14:31.893Z,76.49
2022-08-18T19:17:05.820Z,75.40
2022-08-18T19:19:39.304Z,75.17
2022-08-18T19:22:15.929Z,74.63
2022-08-18T19:24:55.040Z,74.78
2022-08-18T19:27:29.306Z,75.12
2022-08-18T19:30:02.906Z,74.64
2022-08-18T19:32:44.408Z,73.88
2022-08-18T19:35:19.779Z,73.48
2022-08-18T19:38:04.579Z,73.73
2022-08-18T19:40:43.029Z,73.37
2022-08-18T19:43:16.834Z,72.82
2022-08-18T19:45:50.518Z,72.84
2022-08-18T19:48:27.300Z,72.56
2022-08-18T19:50:59.246Z,73.13
2022-08-18T19:53:44.440Z,73.37
2022-08-18T19:56:32.872Z,73.75
2022-08-18T19:59:35.026Z,73.08
2022-08-18T20:02:22.106Z,72.68
2022-08-18T20:05:03.625Z,71.94
2022-08-18T20:07:55.331Z,71.92
2022-08-18T20:10:36.293Z,72.28
2022-08-18T20:13:21.041Z,72.78
2022-08-18T20:16:12.281Z,73.01
2022-08-18T20:18:42.812Z,72.71
2022-08-18T20:21:39.791Z,72.65
2022-08-18T20:24:30.559Z,72.54
2022-08-18T20:27:21.414Z,73.34
2022-08-18T20:30:03.500Z,73.64
2022-08-18T20:32:35.705Z,73.90
2022-08-18T20:35:20.377Z,74.19
2022-08-18T20:37:48.481Z,74.46
2022-08-18T20:40:38.342Z,74.38
2022-08-18T20:43:07.642Z,74.40
2022-08-18T20:45:42.577Z,73.86
2022-08-18T20:48:29.226Z,73.33
2022-08-18T20:51:12.008Z,72.75
2022-08-18T20:54:13.153Z,72.51
2022-08-18T20:56:48.256Z,72.24
2022-08-18T20:59:20.582Z,71.62
2022-08-18T21:02:05.071Z,71.72
2022-08-18T21:04:42.969Z,70.68
2022-08-18T21:07:18.479Z,71.02
2022-08-18T21:10:13.071Z,70.63
2022-08-18T21:12:52.931Z,70.15
2022-08-18T21:15:24.311Z,70.10
2022-08-18T21:18:01.109Z,70.38
2022-08-18T21:20:30.450Z,71.04
2022-08-18T21:23:10.058Z,70.85
2022-08-18T21:25:44.285Z,69.84
2022-08-18T21:28:13.200Z,69.66
2022-08-18T21:30:55.439Z,70.48
2022-08-18T21:33:25.205Z,70.92
2022-08-18T21:35:53.521Z,69.91
2022-08-18T21:38:28.227Z,69.72
2022-08-18T21:41:01.914Z,70.83
2022-08-18T21:43:43.617Z,71.07
2022-08-18T21:46:24.425Z,70.58
2022-08-18T21:48:58.812Z,71.39
2022-08-18T21:51:31.610Z,69.95
2022-08-18T21:54:00.858Z,70.26
2022-08-18T21:56:31.318Z,70.15
2022-08-18T21:59:09.697Z,71.48
2022-08-18T22:01:40.154Z,70.59
2022-08-18T22:04:24.418Z,71.71
2022-08-18T22:06:55.566Z,72.39
2022-08-18T22:09:43.695Z,73.04
2022-08-18T22:12:46.183Z,73.98
2022-08-18T22:15:18.612Z,74.13
2022-08-18T22:17:57.404Z,75.03
2022-08-18T22:20:47.991Z,75.19
2022-08-18T22:23:55.947Z,75.54
2022-08-18T22:26:27.538Z,75.48
2022-08-18T22:29:00.973Z,75.66
2022-08-18T22:31:32.668Z,74.37
2022-08-18T22:34:04.746Z,74.92
2022-08-18T22:36:37.541Z,75.44
2022-08-18T22:39:09.187Z,75.91
2022-08-18T22:41:38.166Z,73.97
2022-08-18T22:44:08.066Z,73.82
2022-08-18T22:46:37.038Z,73.64
2022-08-18T22:49:05.470Z,73.74
2022-08-18T22:51:36.810Z,72.13
2022-08-18T22:54:06.351Z,72.08
2022-08-18T22:56:35.795Z,72.49
2022-08-18T22:59:15.571Z,73.16
2022-08-18T23:01:46.586Z,74.05
2022-08-18T23:04:17.140Z,74.66
2022-08-18T23:06:52.529Z,75.20
2022-08-18T23:09:22.973Z,75.79
2022-08-18T23:11:52.247Z,75.21
2022-08-18T23:14:20.566Z,76.17
2022-08-18T23:16:49.767Z,75.36
2022-08-18T23:19:20.400Z,74.94
2022-08-18T23:21:51.776Z,75.22
2022-08-18T23:24:21.354Z,75.63
2022-08-18T23:26:50.535Z,75.91
2022-08-18T23:29:20.000Z,76.66
2022-08-18T23:31:49.613Z,76.14
2022-08-18T23:34:19.494Z,76.31
2022-08-18T23:36:55.545Z,75.34
2022-08-18T23:39:24.016Z,73.23
2022-08-18T23:41:53.041Z,71.99
2022-08-18T23:44:21.391Z,71.13
2022-08-18T23:46:52.440Z,70.56
2022-08-18T23:49:20.889Z,70.14
2022-08-18T23:51:55.084Z,70.24
2022-08-18T23:54:25.994Z,69.64
2022-08-18T23:56:54.090Z,69.72
2022-08-18T23:59:24.977Z,69.86
